createdAt,value
2024-01-11T00:01:52.761Z,-8.79
2024-01-11T00:04:20.963Z,-8.75
2024-01-11T00:06:49.271Z,-8.70
2024-01-11T00:09:17.543Z,-8.76
2024-01-11T00:11:45.710Z,-8.82
2024-01-11T00:14:13.941Z,-8.88
2024-01-11T00:16:43.088Z,-8.88
2024-01-11T00:19:11.373Z,-8.83
2024-01-11T00:21:41.881Z,-8.82
2024-01-11T00:24:10.475Z,-8.81
2024-01-11T00:26:38.755Z,-8.82
2024-01-11T00:29:07.053Z,-8.82
2024-01-11T00:31:35.297Z,-8.82
2024-01-11T00:34:03.673Z,-8.85
2024-01-11T00:36:32.051Z,-8.88
2024-01-11T00:39:00.529Z,-8.94
2024-01-11T00:41:28.980Z,-8.96
2024-01-11T00:43:57.297Z,-8.91
2024-01-11T00:46:25.565Z,-8.93
2024-01-11T00:48:56.574Z,-8.97
2024-01-11T00:51:25.182Z,-9.01
2024-01-11T00:53:53.317Z,-9.00
2024-01-11T00:56:22.526Z,-9.03
2024-01-11T00:58:50.726Z,-9.07
2024-01-11T01:01:19.015Z,-9.12
2024-01-11T01:03:47.179Z,-9.11
2024-01-11T01:06:15.494Z,-9.10
2024-01-11T01:08:43.677Z,-9.08
2024-01-11T01:11:11.830Z,-9.05
2024-01-11T01:13:40.166Z,-9.03
2024-01-11T01:16:08.344Z,-9.03
2024-01-11T01:18:36.570Z,-9.03
2024-01-11T01:21:08.288Z,-9.04
2024-01-11T01:23:36.503Z,-9.04
2024-01-11T01:26:07.485Z,-9.04
2024-01-11T01:28:35.967Z,-9.03
2024-01-11T01:31:04.365Z,-9.02
2024-01-11T01:33:32.855Z,-9.07
2024-01-11T01:36:00.996Z,-9.15
2024-01-11T01:38:29.124Z,-9.19
2024-01-11T01:40:57.457Z,-9.19
2024-01-11T01:43:25.511Z,-9.20
2024-01-11T01:45:54.202Z,-9.19
2024-01-11T01:48:22.836Z,-9.21
2024-01-11T01:50:54.389Z,-9.22
2024-01-11T01:53:23.670Z,-9.22
2024-01-11T01:55:52.966Z,-9.28
2024-01-11T01:58:21.811Z,-9.32
2024-01-11T02:00:52.597Z,-9.36
2024-01-11T02:03:21.275Z,-9.39
2024-01-11T02:05:49.943Z,-9.42
2024-01-11T02:08:20.580Z,-9.46
2024-01-11T02:10:49.128Z,-9.44
2024-01-11T02:13:17.400Z,-9.39
2024-01-11T02:15:46.975Z,-9.36
2024-01-11T02:18:15.370Z,-9.41
2024-01-11T02:20:43.684Z,-9.41
2024-01-11T02:23:19.903Z,-9.40
2024-01-11T02:25:48.104Z,-9.41
2024-01-11T02:28:16.278Z,-9.44
2024-01-11T02:30:44.508Z,-9.45
2024-01-11T02:33:17.461Z,-9.40
2024-01-11T02:35:48.028Z,-9.41
2024-01-11T02:38:17.231Z,-9.45
2024-01-11T02:40:46.044Z,-9.48
2024-01-11T02:43:14.739Z,-9.45
2024-01-11T02:45:42.793Z,-9.29
2024-01-11T02:48:11.059Z,-9.15
2024-01-11T02:50:39.488Z,-9.09
2024-01-11T02:53:07.641Z,-9.09
2024-01-11T02:55:35.791Z,-9.07
2024-01-11T02:58:04.090Z,-9.07
2024-01-11T03:00:32.182Z,-9.00
2024-01-11T03:03:00.371Z,-8.97
2024-01-11T03:05:29.009Z,-8.95
2024-01-11T03:07:57.297Z,-8.88
2024-01-11T03:10:25.348Z,-8.83
2024-01-11T03:12:53.422Z,-8.79
2024-01-11T03:15:21.485Z,-8.75
2024-01-11T03:17:49.853Z,-8.72
2024-01-11T03:20:21.659Z,-8.72
2024-01-11T03:22:49.786Z,-8.71
2024-01-11T03:25:17.854Z,-8.75
2024-01-11T03:27:46.331Z,-8.80
2024-01-11T03:30:14.818Z,-8.80
2024-01-11T03:32:43.241Z,-8.80
2024-01-11T03:35:11.659Z,-8.78
2024-01-11T03:37:40.048Z,-8.80
2024-01-11T03:40:08.638Z,-8.84
2024-01-11T03:42:36.696Z,-8.86
2024-01-11T03:45:06.056Z,-8.87
2024-01-11T03:47:34.294Z,-8.91
2024-01-11T03:50:03.390Z,-8.92
2024-01-11T03:52:31.547Z,-8.90
2024-01-11T03:54:59.712Z,-8.90
2024-01-11T03:57:27.984Z,-8.88
2024-01-11T03:59:56.064Z,-8.90
2024-01-11T04:02:24.225Z,-8.94
2024-01-11T04:04:52.711Z,-8.97
2024-01-11T04:07:20.795Z,-8.98
2024-01-11T04:09:48.875Z,-8.97
2024-01-11T04:12:17.029Z,-8.89
2024-01-11T04:14:45.276Z,-8.78
2024-01-11T04:17:13.669Z,-8.69
2024-01-11T04:19:41.955Z,-8.59
2024-01-11T04:22:10.226Z,-8.45
2024-01-11T04:24:38.294Z,-8.37
2024-01-11T04:27:06.668Z,-8.31
2024-01-11T04:29:34.871Z,-8.24
2024-01-11T04:32:03.096Z,-8.15
2024-01-11T04:34:32.612Z,-8.06
2024-01-11T04:37:00.999Z,-7.98
2024-01-11T04:39:29.172Z,-7.90
2024-01-11T04:41:57.246Z,-7.83
2024-01-11T04:44:27.885Z,-7.77
2024-01-11T04:46:56.436Z,-7.70
2024-01-11T04:49:25.004Z,-7.62
2024-01-11T04:51:53.220Z,-7.55
2024-01-11T04:54:21.382Z,-7.49
2024-01-11T04:56:49.607Z,-7.42
2024-01-11T04:59:17.871Z,-7.33
2024-01-11T05:01:47.446Z,-7.21
2024-01-11T05:04:15.605Z,-7.08
2024-01-11T05:06:44.061Z,-6.99
2024-01-11T05:09:12.269Z,-6.93
2024-01-11T05:11:40.485Z,-6.88
2024-01-11T05:14:08.777Z,-6.81
2024-01-11T05:16:37.292Z,-6.72
2024-01-11T05:19:05.471Z,-6.66
2024-01-11T05:21:33.732Z,-6.60
2024-01-11T05:24:02.736Z,-6.60
2024-01-11T05:26:31.200Z,-6.61
2024-01-11T05:28:59.962Z,-6.52
2024-01-11T05:31:28.242Z,-6.45
2024-01-11T05:33:56.642Z,-6.43
2024-01-11T05:36:25.131Z,-6.41
2024-01-11T05:38:53.196Z,-6.36
2024-01-11T05:41:21.279Z,-6.28
2024-01-11T05:43:49.441Z,-6.24
2024-01-11T05:46:17.510Z,-6.20
2024-01-11T05:48:45.811Z,-6.13
2024-01-11T05:51:14.064Z,-6.07
2024-01-11T05:53:42.245Z,-6.06
2024-01-11T05:56:12.133Z,-6.06
2024-01-11T05:58:41.400Z,-6.11
2024-01-11T06:01:10.331Z,-6.16
2024-01-11T06:03:39.916Z,-6.22
2024-01-11T06:06:08.653Z,-6.26
2024-01-11T06:08:36.944Z,-6.27
2024-01-11T06:11:05.789Z,-6.27
2024-01-11T06:13:34.276Z,-6.26
2024-01-11T06:16:02.851Z,-6.27
2024-01-11T06:18:32.036Z,-6.28
2024-01-11T06:21:00.328Z,-6.26
2024-01-11T06:23:28.966Z,-6.25
2024-01-11T06:25:57.423Z,-6.22
2024-01-11T06:28:25.562Z,-6.19
2024-01-11T06:30:55.104Z,-6.16
2024-01-11T06:33:23.505Z,-6.10
2024-01-11T06:35:51.983Z,-6.00
2024-01-11T06:38:20.220Z,-5.94
2024-01-11T06:40:50.015Z,-5.89
2024-01-11T06:43:18.040Z,-5.83
2024-01-11T06:45:46.289Z,-5.76
2024-01-11T06:48:14.587Z,-5.71
2024-01-11T06:50:43.049Z,-5.66
2024-01-11T06:53:11.300Z,-5.59
2024-01-11T06:55:39.582Z,-5.52
2024-01-11T06:58:07.937Z,-5.48
2024-01-11T07:00:36.914Z,-5.48
2024-01-11T07:03:05.085Z,-5.47
2024-01-11T07:05:33.570Z,-5.45
2024-01-11T07:08:01.779Z,-5.43
2024-01-11T07:10:30.024Z,-5.41
2024-01-11T07:12:58.145Z,-5.41
2024-01-11T07:15:26.471Z,-5.41
2024-01-11T07:17:54.991Z,-5.42
2024-01-11T07:20:23.278Z,-5.43
2024-01-11T07:22:51.513Z,-5.44
2024-01-11T07:25:19.567Z,-5.45
2024-01-11T07:27:47.599Z,-5.45
2024-01-11T07:30:16.411Z,-5.45
2024-01-11T07:32:44.893Z,-5.44
2024-01-11T07:35:17.658Z,-5.44
2024-01-11T07:37:47.301Z,-5.42
2024-01-11T07:40:15.620Z,-5.41
2024-01-11T07:42:44.447Z,-5.37
2024-01-11T07:45:12.677Z,-5.33
2024-01-11T07:47:41.481Z,-5.30
2024-01-11T07:50:16.684Z,-5.24
2024-01-11T07:52:44.921Z,-5.19
2024-01-11T07:55:14.263Z,-5.15
2024-01-11T07:57:42.850Z,-5.09
2024-01-11T08:00:11.396Z,-5.05
2024-01-11T08:02:42.376Z,-5.02
2024-01-11T08:05:10.994Z,-4.97
2024-01-11T08:07:39.701Z,-4.92
2024-01-11T08:10:08.486Z,-4.88
2024-01-11T08:12:37.628Z,-4.83
2024-01-11T08:15:06.549Z,-4.78
2024-01-11T08:17:34.711Z,-4.74
2024-01-11T08:20:03.045Z,-4.68
2024-01-11T08:22:35.071Z,-4.65
2024-01-11T08:25:05.870Z,-4.64
2024-01-11T08:27:34.901Z,-4.65
2024-01-11T08:30:03.683Z,-4.64
2024-01-11T08:32:32.764Z,-4.63
2024-01-11T08:35:01.441Z,-4.59
2024-01-11T08:37:29.764Z,-4.55
2024-01-11T08:39:57.807Z,-4.50
2024-01-11T08:42:26.003Z,-4.46
2024-01-11T08:44:54.263Z,-4.47
2024-01-11T08:47:22.615Z,-4.48
2024-01-11T08:49:51.435Z,-4.46
2024-01-11T08:52:19.428Z,-4.43
2024-01-11T08:54:47.669Z,-4.38
2024-01-11T08:57:16.372Z,-4.33
2024-01-11T08:59:44.716Z,-4.27
2024-01-11T09:02:16.750Z,-4.22
2024-01-11T09:04:48.946Z,-4.15
2024-01-11T09:07:17.543Z,-4.08
2024-01-11T09:09:53.664Z,-4.00
2024-01-11T09:12:25.174Z,-3.93
2024-01-11T09:14:53.615Z,-3.86
2024-01-11T09:17:23.206Z,-3.77
2024-01-11T09:19:52.226Z,-3.70
2024-01-11T09:22:20.510Z,-3.64
2024-01-11T09:24:48.686Z,-3.64
2024-01-11T09:27:17.051Z,-3.62
2024-01-11T09:29:46.102Z,-3.59
2024-01-11T09:32:14.601Z,-3.54
2024-01-11T09:34:42.988Z,-3.51
2024-01-11T09:37:11.178Z,-3.47
2024-01-11T09:39:39.616Z,-3.49
2024-01-11T09:42:08.752Z,-3.50
2024-01-11T09:44:41.006Z,-3.50
2024-01-11T09:47:11.734Z,-3.50
2024-01-11T09:49:43.940Z,-3.50
2024-01-11T09:52:14.396Z,-3.52
2024-01-11T09:54:42.925Z,-3.52
2024-01-11T09:57:11.314Z,-3.54
2024-01-11T09:59:39.630Z,-3.50
2024-01-11T10:02:11.096Z,-3.50
2024-01-11T10:04:39.302Z,-3.49
2024-01-11T10:07:08.189Z,-3.44
2024-01-11T10:09:36.879Z,-3.41
2024-01-11T10:12:06.317Z,-3.37
2024-01-11T10:14:35.039Z,-3.34
2024-01-11T10:17:03.279Z,-3.32
2024-01-11T10:19:31.694Z,-3.32
2024-01-11T10:22:00.708Z,-3.35
2024-01-11T10:24:29.768Z,-3.36
2024-01-11T10:26:59.706Z,-3.32
2024-01-11T10:29:32.024Z,-3.29
2024-01-11T10:32:00.696Z,-3.25
2024-01-11T10:34:29.080Z,-3.21
2024-01-11T10:36:58.147Z,-3.16
2024-01-11T10:39:27.564Z,-3.07
2024-01-11T10:42:07.094Z,-3.01
2024-01-11T10:44:37.394Z,-2.96
2024-01-11T10:47:09.112Z,-3.01
2024-01-11T10:49:41.342Z,-3.07
2024-01-11T10:52:09.904Z,-3.05
2024-01-11T10:54:38.422Z,-2.99
2024-01-11T10:57:06.965Z,-2.92
2024-01-11T10:59:36.806Z,-2.85
2024-01-11T11:02:07.857Z,-2.78
2024-01-11T11:04:37.325Z,-2.67
2024-01-11T11:07:08.976Z,-2.60
2024-01-11T11:09:38.638Z,-2.51
2024-01-11T11:12:07.366Z,-2.39
2024-01-11T11:14:36.625Z,-2.27
2024-01-11T11:17:05.774Z,-2.18
2024-01-11T11:19:34.085Z,-2.04
2024-01-11T11:22:06.251Z,-1.89
2024-01-11T11:24:37.576Z,-1.86
2024-01-11T11:27:06.851Z,-1.89
2024-01-11T11:29:35.090Z,-1.91
2024-01-11T11:32:04.612Z,-1.93
2024-01-11T11:34:46.587Z,-1.95
2024-01-11T11:37:24.451Z,-1.96
2024-01-11T11:39:53.114Z,-1.96
2024-01-11T11:42:26.000Z,-1.93
2024-01-11T11:44:54.296Z,-1.89
2024-01-11T11:47:24.575Z,-1.91
2024-01-11T11:50:04.665Z,-1.92
2024-01-11T11:52:37.979Z,-1.95
2024-01-11T11:55:10.000Z,-1.91
2024-01-11T11:57:38.165Z,-1.86
2024-01-11T12:00:07.861Z,-1.83
2024-01-11T12:02:43.132Z,-1.82
2024-01-11T12:05:11.598Z,-1.84
2024-01-11T12:07:39.978Z,-1.82
2024-01-11T12:10:08.240Z,-1.80
2024-01-11T12:12:38.975Z,-1.82
2024-01-11T12:15:07.871Z,-1.88
2024-01-11T12:17:36.146Z,-1.97
2024-01-11T12:20:05.052Z,-2.08
2024-01-11T12:22:33.405Z,-2.15
2024-01-11T12:25:02.619Z,-2.18
2024-01-11T12:27:31.855Z,-2.14
2024-01-11T12:30:00.236Z,-2.20
2024-01-11T12:32:31.222Z,-2.30
2024-01-11T12:34:59.663Z,-2.36
2024-01-11T12:37:28.183Z,-2.42
2024-01-11T12:39:59.885Z,-2.49
2024-01-11T12:42:30.873Z,-2.55
2024-01-11T12:44:59.774Z,-2.60
2024-01-11T12:47:28.961Z,-2.66
2024-01-11T12:49:57.658Z,-2.73
2024-01-11T12:52:28.758Z,-2.81
2024-01-11T12:54:58.158Z,-2.87
2024-01-11T12:57:26.520Z,-2.92
2024-01-11T12:59:54.942Z,-2.98
2024-01-11T13:02:23.066Z,-3.03
2024-01-11T13:04:52.112Z,-3.13
2024-01-11T13:07:20.483Z,-3.22
2024-01-11T13:09:48.702Z,-3.30
2024-01-11T13:12:16.821Z,-3.35
2024-01-11T13:14:45.077Z,-3.35
2024-01-11T13:17:13.505Z,-3.35
2024-01-11T13:19:41.759Z,-3.38
2024-01-11T13:22:10.236Z,-3.40
2024-01-11T13:24:38.307Z,-3.42
2024-01-11T13:27:06.657Z,-3.40
2024-01-11T13:29:35.178Z,-3.38
2024-01-11T13:32:05.762Z,-3.37
2024-01-11T13:34:34.061Z,-3.37
2024-01-11T13:37:02.442Z,-3.39
2024-01-11T13:39:30.611Z,-3.44
2024-01-11T13:41:59.617Z,-3.45
2024-01-11T13:44:28.067Z,-3.45
2024-01-11T13:46:56.466Z,-3.46
2024-01-11T13:49:26.580Z,-3.48
2024-01-11T13:52:00.914Z,-3.50
2024-01-11T13:54:30.335Z,-3.52
2024-01-11T13:56:58.483Z,-3.52
2024-01-11T13:59:27.402Z,-3.52
2024-01-11T14:01:55.639Z,-3.52
2024-01-11T14:04:25.180Z,-3.50
2024-01-11T14:06:54.012Z,-3.50
2024-01-11T14:09:23.633Z,-3.50
2024-01-11T14:11:51.839Z,-3.51
2024-01-11T14:14:22.032Z,-3.54
2024-01-11T14:16:50.408Z,-3.56
2024-01-11T14:19:18.770Z,-3.59
2024-01-11T14:21:47.081Z,-3.62
2024-01-11T14:24:18.207Z,-3.63
2024-01-11T14:26:51.490Z,-3.64
2024-01-11T14:29:19.591Z,-3.64
2024-01-11T14:31:47.839Z,-3.65
2024-01-11T14:34:16.025Z,-3.65
2024-01-11T14:36:44.187Z,-3.64
2024-01-11T14:39:12.373Z,-3.62
2024-01-11T14:41:40.479Z,-3.59
2024-01-11T14:44:09.063Z,-3.55
2024-01-11T14:46:37.207Z,-3.54
2024-01-11T14:49:05.911Z,-3.52
2024-01-11T14:51:35.261Z,-3.50
2024-01-11T14:54:05.096Z,-3.48
2024-01-11T14:56:33.532Z,-3.45
2024-01-11T14:59:03.329Z,-3.41
2024-01-11T15:01:32.302Z,-3.38
2024-01-11T15:04:00.682Z,-3.34
2024-01-11T15:06:29.213Z,-3.32
2024-01-11T15:08:57.848Z,-3.31
2024-01-11T15:11:27.060Z,-3.28
2024-01-11T15:13:55.271Z,-3.27
2024-01-11T15:16:23.957Z,-3.25
2024-01-11T15:18:52.260Z,-3.24
2024-01-11T15:21:20.396Z,-3.23
2024-01-11T15:23:48.597Z,-3.23
2024-01-11T15:26:16.971Z,-3.21
2024-01-11T15:28:45.143Z,-3.20
2024-01-11T15:31:13.256Z,-3.21
2024-01-11T15:33:41.707Z,-3.21
2024-01-11T15:36:11.077Z,-3.22
2024-01-11T15:38:39.418Z,-3.22
2024-01-11T15:41:07.664Z,-3.21
2024-01-11T15:43:37.059Z,-3.20
2024-01-11T15:46:05.914Z,-3.19
2024-01-11T15:48:34.251Z,-3.18
2024-01-11T15:51:05.246Z,-3.16
2024-01-11T15:53:33.652Z,-3.16
2024-01-11T15:56:02.389Z,-3.15
2024-01-11T15:58:30.463Z,-3.16
2024-01-11T16:00:58.556Z,-3.15
2024-01-11T16:03:26.711Z,-3.14
2024-01-11T16:05:55.408Z,-3.14
2024-01-11T16:08:23.695Z,-3.14
2024-01-11T16:10:52.054Z,-3.12
2024-01-11T16:13:20.225Z,-3.09
2024-01-11T16:15:49.415Z,-3.08
2024-01-11T16:18:19.167Z,-3.06
2024-01-11T16:20:47.645Z,-3.04
2024-01-11T16:23:16.009Z,-3.03
2024-01-11T16:25:44.151Z,-3.00
2024-01-11T16:28:12.219Z,-2.98
2024-01-11T16:30:40.526Z,-2.97
2024-01-11T16:33:10.311Z,-2.96
2024-01-11T16:35:45.140Z,-2.94
2024-01-11T16:38:20.620Z,-2.93
2024-01-11T16:40:49.369Z,-2.90
2024-01-11T16:43:17.740Z,-2.90
2024-01-11T16:45:45.916Z,-2.89
2024-01-11T16:48:18.618Z,-2.89
2024-01-11T16:50:48.617Z,-2.88
2024-01-11T16:53:17.111Z,-2.87
2024-01-11T16:55:45.886Z,-2.88
2024-01-11T16:58:14.264Z,-2.88
2024-01-11T17:00:43.297Z,-2.88
2024-01-11T17:03:11.734Z,-2.88
2024-01-11T17:05:40.225Z,-2.89
2024-01-11T17:08:08.615Z,-2.88
2024-01-11T17:10:39.062Z,-2.88
2024-01-11T17:13:07.483Z,-2.88
2024-01-11T17:15:36.378Z,-2.91
2024-01-11T17:18:05.113Z,-2.93
2024-01-11T17:20:33.249Z,-2.94
2024-01-11T17:23:01.542Z,-2.94
2024-01-11T17:25:29.791Z,-2.92
2024-01-11T17:27:57.957Z,-2.91
2024-01-11T17:30:26.271Z,-2.91
2024-01-11T17:32:55.827Z,-2.91
2024-01-11T17:35:24.975Z,-2.90
2024-01-11T17:37:53.209Z,-2.88
2024-01-11T17:40:21.297Z,-2.87
2024-01-11T17:42:49.553Z,-2.86
2024-01-11T17:45:17.823Z,-2.85
2024-01-11T17:47:46.420Z,-2.85
2024-01-11T17:50:15.143Z,-2.84
2024-01-11T17:52:45.970Z,-2.83
2024-01-11T17:55:15.327Z,-2.82
2024-01-11T17:57:43.710Z,-2.80
2024-01-11T18:00:13.971Z,-2.77
2024-01-11T18:02:42.194Z,-2.75
2024-01-11T18:05:10.885Z,-2.73
2024-01-11T18:07:39.274Z,-2.72
2024-01-11T18:10:08.147Z,-2.72
2024-01-11T18:12:36.220Z,-2.72
2024-01-11T18:15:04.953Z,-2.70
2024-01-11T18:17:33.271Z,-2.69
2024-01-11T18:20:01.654Z,-2.69
2024-01-11T18:22:31.612Z,-2.70
2024-01-11T18:25:01.083Z,-2.70
2024-01-11T18:27:29.456Z,-2.71
2024-01-11T18:29:58.442Z,-2.74
2024-01-11T18:32:26.800Z,-2.75
2024-01-11T18:34:57.128Z,-2.75
2024-01-11T18:37:27.163Z,-2.75
2024-01-11T18:39:55.228Z,-2.75
2024-01-11T18:42:25.094Z,-2.75
2024-01-11T18:44:54.904Z,-2.75
2024-01-11T18:47:23.196Z,-2.74
2024-01-11T18:49:51.399Z,-2.74
2024-01-11T18:52:19.679Z,-2.72
2024-01-11T18:54:54.197Z,-2.72
2024-01-11T18:57:26.484Z,-2.73
2024-01-11T18:59:56.458Z,-2.73
2024-01-11T19:02:24.772Z,-2.74
2024-01-11T19:04:52.965Z,-2.75
2024-01-11T19:07:21.540Z,-2.76
2024-01-11T19:09:49.703Z,-2.77
2024-01-11T19:12:17.778Z,-2.78
2024-01-11T19:14:46.850Z,-2.79
2024-01-11T19:17:15.660Z,-2.79
2024-01-11T19:19:43.926Z,-2.78
2024-01-11T19:22:12.290Z,-2.79
2024-01-11T19:24:40.563Z,-2.80
2024-01-11T19:27:08.842Z,-2.80
2024-01-11T19:29:36.933Z,-2.81
2024-01-11T19:32:05.508Z,-2.83
2024-01-11T19:34:33.703Z,-2.85
2024-01-11T19:37:02.768Z,-2.85
2024-01-11T19:39:30.927Z,-2.86
2024-01-11T19:42:00.300Z,-2.86
2024-01-11T19:44:28.873Z,-2.86
2024-01-11T19:46:57.292Z,-2.85
2024-01-11T19:49:25.587Z,-2.84
2024-01-11T19:51:53.851Z,-2.82
2024-01-11T19:54:22.120Z,-2.82
2024-01-11T19:56:50.229Z,-2.81
2024-01-11T19:59:19.438Z,-2.79
2024-01-11T20:01:47.572Z,-2.79
2024-01-11T20:04:15.842Z,-2.79
2024-01-11T20:06:44.748Z,-2.79
2024-01-11T20:09:16.694Z,-2.78
2024-01-11T20:11:45.330Z,-2.79
2024-01-11T20:14:13.875Z,-2.78
2024-01-11T20:16:42.221Z,-2.76
2024-01-11T20:19:10.459Z,-2.76
2024-01-11T20:21:38.676Z,-2.74
2024-01-11T20:24:07.249Z,-2.74
2024-01-11T20:26:35.589Z,-2.74
2024-01-11T20:29:03.797Z,-2.72
2024-01-11T20:31:32.912Z,-2.70
2024-01-11T20:34:04.096Z,-2.70
2024-01-11T20:36:32.458Z,-2.70
2024-01-11T20:39:00.834Z,-2.69
2024-01-11T20:41:29.116Z,-2.69
2024-01-11T20:43:57.437Z,-2.68
2024-01-11T20:46:25.812Z,-2.66
2024-01-11T20:48:54.108Z,-2.65
2024-01-11T20:51:22.279Z,-2.63
2024-01-11T20:53:51.661Z,-2.62
2024-01-11T20:56:19.873Z,-2.60
2024-01-11T20:58:48.222Z,-2.58
2024-01-11T21:01:16.706Z,-2.56
2024-01-11T21:03:45.140Z,-2.55
2024-01-11T21:06:14.625Z,-2.54
2024-01-11T21:08:43.228Z,-2.52
2024-01-11T21:11:11.512Z,-2.52
2024-01-11T21:13:39.758Z,-2.52
2024-01-11T21:16:07.900Z,-2.51
2024-01-11T21:18:36.340Z,-2.50
2024-01-11T21:21:04.859Z,-2.49
2024-01-11T21:23:33.356Z,-2.49
2024-01-11T21:26:01.596Z,-2.48
2024-01-11T21:28:30.085Z,-2.47
2024-01-11T21:30:58.412Z,-2.46
2024-01-11T21:33:26.725Z,-2.44
2024-01-11T21:35:54.978Z,-2.42
2024-01-11T21:38:23.195Z,-2.41
2024-01-11T21:40:53.022Z,-2.41
2024-01-11T21:43:21.174Z,-2.40
2024-01-11T21:45:49.225Z,-2.38
2024-01-11T21:48:17.637Z,-2.36
2024-01-11T21:50:46.011Z,-2.35
2024-01-11T21:53:14.679Z,-2.35
2024-01-11T21:55:42.949Z,-2.35
2024-01-11T21:58:11.114Z,-2.35
2024-01-11T22:00:39.322Z,-2.34
2024-01-11T22:03:08.411Z,-2.33
2024-01-11T22:05:36.870Z,-2.31
2024-01-11T22:08:05.485Z,-2.29
2024-01-11T22:10:33.523Z,-2.28
2024-01-11T22:13:01.688Z,-2.26
2024-01-11T22:15:30.166Z,-2.25
2024-01-11T22:17:58.619Z,-2.24
2024-01-11T22:20:27.195Z,-2.23
2024-01-11T22:22:55.912Z,-2.23
2024-01-11T22:25:24.397Z,-2.23
2024-01-11T22:27:53.195Z,-2.22
2024-01-11T22:30:21.693Z,-2.22
2024-01-11T22:32:50.135Z,-2.23
2024-01-11T22:35:19.600Z,-2.22
2024-01-11T22:37:47.921Z,-2.21
2024-01-11T22:40:16.096Z,-2.19
2024-01-11T22:42:44.281Z,-2.19
2024-01-11T22:45:12.438Z,-2.18
2024-01-11T22:47:41.178Z,-2.18
2024-01-11T22:50:10.103Z,-2.19
2024-01-11T22:52:40.052Z,-2.18
2024-01-11T22:55:08.302Z,-2.17
2024-01-11T22:57:36.465Z,-2.16
2024-01-11T23:00:22.035Z,-2.15
2024-01-11T23:02:51.820Z,-2.14
2024-01-11T23:05:20.926Z,-2.13
2024-01-11T23:07:49.434Z,-2.13
2024-01-11T23:10:18.364Z,-2.13
2024-01-11T23:12:46.608Z,-2.13
2024-01-11T23:15:14.776Z,-2.11
2024-01-11T23:17:43.253Z,-2.11
2024-01-11T23:20:12.296Z,-2.10
2024-01-11T23:22:40.420Z,-2.10
2024-01-11T23:25:09.229Z,-2.09
2024-01-11T23:27:37.708Z,-2.08
2024-01-11T23:30:06.594Z,-2.06
2024-01-11T23:32:34.825Z,-2.05
2024-01-11T23:35:03.238Z,-2.05
2024-01-11T23:37:31.504Z,-2.05
2024-01-11T23:39:59.694Z,-2.05
2024-01-11T23:42:27.856Z,-2.06
2024-01-11T23:44:56.234Z,-2.06
2024-01-11T23:47:24.417Z,-2.08
2024-01-11T23:49:52.723Z,-2.07
2024-01-11T23:52:20.950Z,-2.06
2024-01-11T23:54:49.024Z,-2.06
2024-01-11T23:57:17.184Z,-2.06
2024-01-11T23:59:46.099Z,-2.06
